Date,TemperatureHighF,TemperatureAvgF,TemperatureLowF,DewpointHighF,DewpointAvgF,DewpointLowF,HumidityHigh,HumidityAvg,HumidityLow,PressureMaxIn,PressureMinIn,WindSpeedMaxMPH,WindSpeedAvgMPH,GustSpeedMaxMPH,PrecipitationSumIn
2013-1-1,53.1,40.6,32.0,36.4,32.4,29.1,89,74,50,30.25,30.15,7,2,16,0.00
2013-1-2,56.6,39.5,29.5,39.5,31.9,26.6,91,76,47,30.22,30.09,2,0,7,0.00
2013-1-3,54.4,38.8,28.4,40.0,32.8,25.5,91,80,52,30.22,30.13,2,0,6,0.00
2013-1-4,56.4,41.0,31.2,39.5,34.0,28.3,90,77,49,30.26,30.14,3,0,10,0.00
2013-1-5,48.6,40.9,33.6,42.7,37.3,31.0,91,87,77,30.23,30.05,5,0,10,0.36
2013-1-6,54.5,43.9,37.4,46.4,40.7,35.0,92,89,68,30.14,30.04,3,0,11,0.19
2013-1-7,52.4,42.8,35.1,44.1,38.8,32.6,92,86,70,30.19,30.09,2,0,9,0.00
2013-1-8,56.7,42.9,34.6,47.7,39.3,32.5,93,87,67,30.21,30.08,1,0,6,0.01
2013-1-9,50.4,45.1,39.0,47.1,39.6,31.7,93,82,64,30.12,29.86,8,1,17,0.00
2013-1-10,51.5,40.4,30.8,37.4,31.8,27.8,89,72,46,30.10,29.97,2,0,10,0.00
2013-1-11,50.7,38.0,28.6,37.1,31.5,25.5,89,78,55,30.18,30.07,4,0,9,0.00
2013-1-12,48.2,40.5,32.3,27.8,26.3,23.8,82,59,40,30.17,30.09,4,1,14,0.00
2013-1-13,46.7,37.0,25.6,27.5,23.2,18.8,82,58,40,30.22,30.13,10,2,19,0.00
2013-1-14,51.0,40.1,32.7,27.4,22.7,19.0,73,51,31,30.37,30.19,9,4,25,0.00
2013-1-15,51.9,38.6,30.9,35.0,29.7,24.6,85,72,46,30.41,30.33,2,0,6,0.00
2013-1-16,57.7,40.2,27.9,38.6,31.9,24.8,89,75,42,30.40,30.23,1,0,6,0.00
2013-1-17,59.2,41.1,28.3,41.6,33.5,25.7,91,77,47,30.25,30.12,1,0,5,0.00
2013-1-18,60.8,44.5,34.7,39.3,33.9,29.1,89,70,35,30.21,30.10,4,0,12,0.00
2013-1-19,63.8,43.8,30.1,40.3,31.7,26.4,89,66,28,30.24,30.11,4,0,11,0.00
2013-1-20,64.8,45.3,32.5,34.0,30.8,27.9,84,61,27,30.20,30.07,4,1,12,0.00
2013-1-21,62.5,45.3,33.5,41.3,34.4,29.5,87,68,38,30.15,30.06,3,0,8,0.00
2013-1-22,62.4,46.9,35.6,40.1,36.4,31.8,86,69,41,30.10,29.97,4,0,7,0.00
2013-1-23,53.8,47.3,44.1,46.6,41.7,37.4,91,81,65,30.07,29.93,6,1,13,0.20
2013-1-24,57.8,51.7,46.4,52.9,48.1,43.9,91,88,83,30.14,30.02,7,2,19,0.02
2013-1-25,67.5,56.0,48.1,56.4,51.1,45.9,92,84,65,30.13,29.97,1,0,7,0.00
2013-1-26,64.9,52.5,43.8,54.4,43.1,37.1,93,73,40,29.97,29.85,7,1,14,0.14
2013-1-27,56.8,45.3,34.9,41.0,35.7,32.3,91,71,41,30.10,29.96,6,1,17,0.01